Time;durP1;ratioP1;P1;durP2;ratioP2;P2;SDS_P1;SDS_P2;PMS_P1;PMS_P2;Temp;Humidity;BMP_temperature;BMP_pressure;BME280_temperature;BME280_humidity;BME280_pressure;Samples;Min_cycle;Max_cycle;Signal;HPM_P1;HPM_P2
2022/08/21 00:01:39;;;;;;;26.55;6.18;;;;;;;17.71;81.22;101583.47;5054791;28;20092;-80
2022/08/21 00:04:08;;;;;;;35.90;6.60;;;;;;;17.68;81.42;101581.19;5053573;28;20574;-81
2022/08/21 00:06:34;;;;;;;23.42;6.05;;;;;;;17.68;81.56;101586.63;5053715;28;20017;-81
2022/08/21 00:09:01;;;;;;;33.17;6.20;;;;;;;17.65;81.64;101583.50;5053600;28;20017;-80
2022/08/21 00:11:27;;;;;;;31.13;6.67;;;;;;;17.63;81.90;101589.13;5051578;28;20037;-80
2022/08/21 00:13:53;;;;;;;41.45;6.25;;;;;;;17.60;82.04;101578.66;5051312;28;20359;-79
2022/08/21 00:16:18;;;;;;;31.48;5.95;;;;;;;17.56;82.16;101577.41;5053610;28;20033;-80
2022/08/21 00:18:44;;;;;;;43.92;5.97;;;;;;;17.54;82.39;101574.91;5055477;28;20044;-77
2022/08/21 00:21:13;;;;;;;23.60;4.60;;;;;;;17.53;82.44;101584.09;5040056;28;20014;-78
2022/08/21 00:23:39;;;;;;;36.50;5.47;;;;;;;17.50;82.39;101573.66;5040677;28;20039;-78
2022/08/21 00:26:05;;;;;;;32.17;4.85;;;;;;;17.49;82.60;101571.97;5059669;28;20030;-78
2022/08/21 00:28:30;;;;;;;32.35;5.38;;;;;;;17.48;82.54;101575.75;5042319;28;20025;-79
2022/08/21 00:30:56;;;;;;;20.05;5.13;;;;;;;17.49;82.72;101573.88;5059098;28;20033;-78
2022/08/21 00:33:22;;;;;;;25.85;5.25;;;;;;;17.46;82.83;101571.56;5041704;28;20033;-78
2022/08/21 00:35:48;;;;;;;24.83;5.63;;;;;;;17.42;83.03;101570.31;5033995;28;20100;-79
2022/08/21 00:38:14;;;;;;;60.17;6.85;;;;;;;17.42;83.20;101573.03;5035657;28;20030;-79
2022/08/21 00:40:54;;;;;;;27.73;4.80;;;;;;;17.43;83.48;101570.09;5038169;28;20026;-78
2022/08/21 00:43:22;;;;;;;29.65;5.18;;;;;;;17.38;83.41;101567.19;5037147;28;20021;-78
2022/08/21 00:45:48;;;;;;;26.38;4.60;;;;;;;17.39;83.71;101568.00;5032180;28;20022;-78
2022/08/21 00:48:14;;;;;;;28.17;4.55;;;;;;;17.37;83.83;101572.81;5017147;28;20043;-79
2022/08/21 00:50:44;;;;;;;20.65;4.30;;;;;;;17.33;84.10;101567.81;5029341;28;20455;-83
2022/08/21 00:53:10;;;;;;;29.38;6.30;;;;;;;17.35;84.15;101564.84;5006190;28;20094;-81
2022/08/21 00:55:37;;;;;;;27.10;5.20;;;;;;;17.30;84.32;101559.22;5009095;28;20060;-81
2022/08/21 00:58:03;;;;;;;36.38;5.30;;;;;;;17.29;84.40;101569.25;5027948;28;20030;-81
2022/08/21 01:00:33;;;;;;;32.85;4.63;;;;;;;17.27;84.75;101560.47;5010046;28;20070;-81
2022/08/21 01:02:59;;;;;;;23.20;5.00;;;;;;;17.28;84.77;101559.44;5026263;28;20100;-80
2022/08/21 01:05:26;;;;;;;32.40;4.90;;;;;;;17.29;84.73;101549.38;5007660;28;20022;-80
2022/08/21 01:07:51;;;;;;;27.33;5.20;;;;;;;17.29;84.91;101552.94;5026620;28;20061;-79
2022/08/21 01:10:18;;;;;;;24.15;5.45;;;;;;;17.29;84.93;101550.19;5017617;28;20046;-80
2022/08/21 01:12:43;;;;;;;32.55;4.80;;;;;;;17.23;84.71;101545.59;5033674;28;20052;-80
2022/08/21 01:15:10;;;;;;;35.33;6.05;;;;;;;17.20;85.03;101548.75;5035413;28;20057;-79
2022/08/21 01:17:37;;;;;;;42.78;4.90;;;;;;;17.17;85.18;101551.91;5035396;28;20014;-78
2022/08/21 01:20:07;;;;;;;39.28;5.88;;;;;;;17.14;85.41;101546.88;5014387;28;20034;-80
2022/08/21 01:22:32;;;;;;;31.42;5.72;;;;;;;17.13;85.27;101544.34;5029435;28;20025;-80
2022/08/21 01:24:58;;;;;;;29.60;6.40;;;;;;;17.11;85.25;101553.56;5030449;28;20096;-78
2022/08/21 01:27:23;;;;;;;29.88;6.15;;;;;;;17.05;85.37;101542.66;5009961;28;20034;-81
2022/08/21 01:29:59;;;;;;;25.75;6.03;;;;;;;17.05;85.56;101548.09;5016510;28;20030;-81
2022/08/21 01:32:25;;;;;;;32.83;5.28;;;;;;;17.05;85.33;101548.09;4998073;28;20037;-82
2022/08/21 01:34:51;;;;;;;36.55;5.65;;;;;;;17.04;85.12;101554.59;5028691;28;20046;-82
2022/08/21 01:37:18;;;;;;;22.02;5.20;;;;;;;17.03;85.21;101552.91;5030550;28;20033;-81
2022/08/21 01:39:44;;;;;;;29.42;5.88;;;;;;;17.01;85.21;101552.28;5034857;28;20017;-82
2022/08/21 01:42:09;;;;;;;28.17;5.65;;;;;;;17.01;85.13;101549.56;5033581;28;20040;-82
2022/08/21 01:44:35;;;;;;;27.20;5.03;;;;;;;16.95;84.81;101539.50;5038869;28;20024;-83
2022/08/21 01:47:03;;;;;;;26.73;4.68;;;;;;;16.95;84.66;101547.69;5036112;28;20187;-82
2022/08/21 01:49:28;;;;;;;41.17;5.25;;;;;;;16.95;84.61;101547.69;5037525;28;20091;-81
2022/08/21 01:51:54;;;;;;;26.65;4.63;;;;;;;16.92;84.95;101548.94;5016583;28;20025;-82
2022/08/21 01:54:19;;;;;;;29.83;4.75;;;;;;;16.92;84.94;101545.38;5037428;28;20038;-80
2022/08/21 01:56:47;;;;;;;25.75;5.15;;;;;;;16.92;84.88;101542.66;5021436;28;20050;-78
2022/08/21 01:59:12;;;;;;;29.05;4.82;;;;;;;16.93;84.75;101533.44;5039075;28;20030;-80
2022/08/21 02:01:39;;;;;;;49.90;5.53;;;;;;;16.87;84.60;101535.94;5055089;28;20034;-80
2022/08/21 02:04:05;;;;;;;27.17;4.50;;;;;;;16.87;84.90;101533.22;5057302;28;20032;-78
2022/08/21 02:06:30;;;;;;;33.35;4.82;;;;;;;16.84;84.79;101528.19;5056431;28;20048;-81
2022/08/21 02:08:55;;;;;;;39.47;5.07;;;;;;;16.79;85.14;101533.41;5058724;28;20024;-78
2022/08/21 02:11:21;;;;;;;31.35;4.45;;;;;;;16.76;85.16;101525.66;5057260;28;20037;-78
2022/08/21 02:13:46;;;;;;;24.33;3.90;;;;;;;16.76;85.45;101528.38;5057462;28;20055;-78
2022/08/21 02:16:12;;;;;;;21.27;4.85;;;;;;;16.76;85.23;101527.53;5057276;28;20013;-79
2022/08/21 02:18:38;;;;;;;28.73;5.25;;;;;;;16.76;85.07;101531.09;5057368;28;20029;-77
2022/08/21 02:21:04;;;;;;;25.38;4.43;;;;;;;16.70;85.25;101531.09;5053714;28;20021;-77
2022/08/21 02:23:29;;;;;;;30.42;4.05;;;;;;;16.73;85.58;101527.97;5056512;28;20052;-78
2022/08/21 02:26:00;;;;;;;23.02;4.43;;;;;;;16.71;85.54;101524.59;5043051;28;20045;-78
2022/08/21 02:28:26;;;;;;;27.67;4.13;;;;;;;16.72;85.65;101527.13;5056376;28;20032;-80
2022/08/21 02:30:52;;;;;;;34.15;4.32;;;;;;;16.68;85.59;101521.25;5052149;28;20044;-81
2022/08/21 02:33:18;;;;;;;31.10;4.47;;;;;;;16.67;85.62;101524.19;5053276;28;20029;-79
2022/08/21 02:35:44;;;;;;;32.63;4.13;;;;;;;16.64;85.87;101528.16;5055665;28;20096;-78
2022/08/21 02:38:13;;;;;;;28.35;4.15;;;;;;;16.65;85.93;101526.25;5057721;28;20025;-78
2022/08/21 02:40:41;;;;;;;26.50;3.70;;;;;;;16.61;85.84;101522.28;5028401;28;20092;-78
2022/08/21 02:43:07;;;;;;;26.17;3.83;;;;;;;16.59;86.00;101524.38;5020494;28;20103;-78
2022/08/21 02:45:33;;;;;;;31.45;4.28;;;;;;;16.56;86.27;101519.31;5043216;28;20044;-78
2022/08/21 02:48:02;;;;;;;20.40;3.85;;;;;;;16.56;86.18;101517.47;5047351;28;20034;-77
2022/08/21 02:51:04;;;;;;;22.67;4.28;;;;;;;16.56;86.35;101516.59;5043170;28;20041;-77
2022/08/21 02:53:30;;;;;;;33.63;3.95;;;;;;;16.52;86.41;101524.34;5025768;28;20040;-81
2022/08/21 02:55:58;;;;;;;22.05;4.18;;;;;;;16.54;86.59;101516.00;5029202;28;20409;-81
2022/08/21 02:58:24;;;;;;;;;;;;;;;16.55;86.50;101525.81;5036427;28;20032;-81
2022/08/21 03:00:51;;;;;;;27.35;4.90;;;;;;;16.49;86.76;101521.22;5040015;28;19972;-79
2022/08/21 03:03:16;;;;;;;23.52;5.45;;;;;;;16.48;87.09;101516.78;5020805;28;20052;-80
2022/08/21 03:05:43;;;;;;;26.98;5.20;;;;;;;16.48;87.06;101516.78;5041927;28;20061;-79
2022/08/21 03:08:11;;;;;;;23.98;5.90;;;;;;;16.44;87.04;101519.94;5025955;28;20034;-79
2022/08/21 03:10:37;;;;;;;;;;;;;;;16.43;87.39;101515.53;5030981;28;20062;-81
2022/08/21 03:13:03;;;;;;;25.25;5.50;;;;;;;16.40;87.46;101504.22;5035172;28;19918;-81
2022/08/21 03:15:29;;;;;;;36.78;6.38;;;;;;;16.36;87.60;101495.66;5029031;28;20242;-79
2022/08/21 03:17:55;;;;;;;30.35;5.38;;;;;;;16.34;87.95;101497.75;5015016;28;20025;-80
2022/08/21 03:20:23;;;;;;;36.92;6.00;;;;;;;16.33;88.05;101496.06;5029363;28;20030;-79
2022/08/21 03:22:49;;;;;;;30.38;5.35;;;;;;;16.30;88.42;101496.50;5035593;28;20021;-78
2022/08/21 03:25:15;;;;;;;21.65;5.00;;;;;;;16.31;88.70;101487.28;5048865;28;20037;-79
2022/08/21 03:27:41;;;;;;;22.83;4.70;;;;;;;16.30;88.67;101491.06;5046105;28;20057;-81
2022/08/21 03:30:07;;;;;;;27.85;5.03;;;;;;;16.31;88.85;101492.72;5030170;28;20058;-80
2022/08/21 03:32:33;;;;;;;33.65;5.38;;;;;;;16.32;89.00;101488.94;5029171;28;20030;-80
2022/08/21 03:35:00;;;;;;;27.33;5.45;;;;;;;16.30;89.01;101491.06;5045515;28;20052;-81
2022/08/21 03:37:26;;;;;;;26.17;5.15;;;;;;;16.27;89.07;101486.00;5050557;28;20014;-79
2022/08/21 03:39:51;;;;;;;28.88;4.90;;;;;;;16.23;89.58;101484.75;5044576;28;20037;-78
2022/08/21 03:42:16;;;;;;;29.40;5.45;;;;;;;16.17;89.90;101485.59;5048415;28;20081;-78
2022/08/21 03:44:42;;;;;;;45.53;5.75;;;;;;;16.16;90.18;101483.88;5048595;28;20061;-80
2022/08/21 03:47:07;;;;;;;25.10;5.32;;;;;;;16.16;90.44;101479.28;5051681;28;20033;-80
2022/08/21 03:49:33;;;;;;;25.60;5.82;;;;;;;16.15;90.46;101472.19;5053335;28;20029;-79
2022/08/21 03:51:59;;;;;;;21.33;4.97;;;;;;;16.13;90.71;101481.59;5051837;28;20033;-81
2022/08/21 03:54:24;;;;;;;47.60;6.07;;;;;;;16.11;91.11;101483.66;5051183;28;20048;-80
2022/08/21 03:56:50;;;;;;;22.85;5.25;;;;;;;16.11;91.25;101489.09;5053394;28;20010;-78
2022/08/21 03:59:16;;;;;;;34.95;5.85;;;;;;;16.11;91.35;101486.38;5053170;28;20148;-80
2022/08/21 04:01:54;;;;;;;29.60;5.70;;;;;;;16.09;91.43;101488.44;5047078;28;20047;-78
2022/08/21 04:04:19;;;;;;;35.05;6.10;;;;;;;16.06;91.87;101480.72;5048531;28;20037;-78
2022/08/21 04:06:44;;;;;;;40.08;5.80;;;;;;;16.07;91.99;101485.13;5049557;28;20396;-80
2022/08/21 04:09:10;;;;;;;32.90;6.50;;;;;;;16.05;92.15;101481.75;5050936;28;20273;-80
2022/08/21 04:11:36;;;;;;;33.80;5.88;;;;;;;16.02;92.34;101486.56;5048797;28;20108;-79
2022/08/21 04:14:02;;;;;;;27.85;5.60;;;;;;;16.02;92.64;101478.41;5047757;28;20026;-79
2022/08/21 04:16:27;;;;;;;31.27;6.60;;;;;;;16.00;92.93;101491.34;5048733;28;20068;-78
2022/08/21 04:18:52;;;;;;;27.88;5.65;;;;;;;16.00;93.10;101491.34;5045616;28;20087;-81
2022/08/21 04:21:18;;;;;;;26.70;6.13;;;;;;;15.99;93.41;101486.97;5047878;28;20037;-78
2022/08/21 04:23:43;;;;;;;29.25;5.68;;;;;;;15.99;93.76;101489.69;5047907;28;20037;-78
2022/08/21 04:26:08;;;;;;;32.65;6.45;;;;;;;16.00;93.66;101496.78;5051297;28;20033;-80
2022/08/21 04:28:34;;;;;;;41.15;6.75;;;;;;;16.00;93.68;101502.19;5051079;28;20041;-81
2022/08/21 04:30:59;;;;;;;37.15;6.50;;;;;;;16.02;93.85;101507.44;5046132;28;20030;-79
2022/08/21 04:33:25;;;;;;;33.05;6.30;;;;;;;15.99;94.09;101505.97;5053689;28;20048;-80
2022/08/21 04:35:50;;;;;;;45.45;6.03;;;;;;;15.99;94.24;101511.41;5049319;28;20030;-78
2022/08/21 04:38:16;;;;;;;37.67;6.55;;;;;;;15.98;94.40;101512.44;5047908;28;20037;-81
2022/08/21 04:40:41;;;;;;;40.15;6.75;;;;;;;15.97;94.72;101515.34;5051171;28;20105;-80
2022/08/21 04:43:09;;;;;;;37.00;6.88;;;;;;;15.96;94.92;101516.41;5034466;28;20021;-80
2022/08/21 04:45:38;;;;;;;39.92;7.82;;;;;;;15.96;94.97;101511.81;5039839;28;20561;-81
2022/08/21 04:48:06;;;;;;;32.45;7.50;;;;;;;15.97;95.11;101524.31;5051642;28;20029;-79
2022/08/21 04:50:39;;;;;;;34.50;7.93;;;;;;;15.91;95.16;101519.72;5051902;28;20153;-79
2022/08/21 04:53:11;;;;;;;47.10;8.82;;;;;;;15.91;95.73;101527.84;5049966;28;20077;-79
2022/08/21 04:55:37;;;;;;;36.58;7.40;;;;;;;15.91;95.66;101521.59;5048457;28;20092;-80
2022/08/21 04:58:06;;;;;;;32.88;7.63;;;;;;;15.91;96.01;101518.88;5048384;28;20045;-80
2022/08/21 05:00:32;;;;;;;39.03;7.80;;;;;;;15.93;96.06;101523.06;5023503;28;20049;-80
2022/08/21 05:02:58;;;;;;;43.03;8.60;;;;;;;15.92;96.13;101532.22;5050296;28;20022;-80
2022/08/21 05:05:24;;;;;;;45.53;8.32;;;;;;;15.96;96.04;101528.09;5047786;28;20037;-81
2022/08/21 05:07:50;;;;;;;34.25;8.32;;;;;;;15.93;96.21;101525.78;5046421;28;20010;-81
2022/08/21 05:10:15;;;;;;;42.00;8.98;;;;;;;15.96;96.20;101525.38;5048602;28;20056;-79
2022/08/21 05:12:42;;;;;;;51.13;8.40;;;;;;;15.96;96.29;101525.38;5033143;28;20496;-78
2022/08/21 05:15:08;;;;;;;43.97;9.25;;;;;;;15.94;96.39;101519.31;5030782;28;20032;-79
2022/08/21 05:17:33;;;;;;;42.15;8.52;;;;;;;16.00;96.62;101529.34;5051098;28;20135;-79
2022/08/21 05:19:58;;;;;;;38.65;8.27;;;;;;;16.06;96.52;101521.44;5053306;28;20049;-79
2022/08/21 05:22:24;;;;;;;47.00;8.88;;;;;;;16.04;96.46;101523.53;5041468;28;20033;-80
2022/08/21 05:24:50;;;;;;;33.75;9.00;;;;;;;16.06;96.32;101521.44;5045504;28;20122;-78
2022/08/21 05:27:16;;;;;;;45.85;9.18;;;;;;;16.10;96.14;101522.72;5039842;28;20476;-80
2022/08/21 05:29:42;;;;;;;31.42;7.95;;;;;;;16.06;96.30;101516.00;5034562;28;20048;-78
2022/08/21 05:32:09;;;;;;;35.47;8.98;;;;;;;16.10;96.14;101514.59;5049615;28;20041;-79
2022/08/21 05:34:34;;;;;;;45.15;8.18;;;;;;;16.14;95.77;101521.25;5042378;28;20113;-79
2022/08/21 05:37:00;;;;;;;42.10;9.25;;;;;;;16.27;95.85;101515.06;5044721;28;20040;-78
2022/08/21 05:39:25;;;;;;;39.67;8.43;;;;;;;16.28;95.31;101519.47;5046181;28;20025;-80
2022/08/21 05:41:51;;;;;;;40.35;8.73;;;;;;;16.37;94.98;101526.38;5045789;28;20029;-80
2022/08/21 05:44:16;;;;;;;41.55;8.82;;;;;;;16.55;94.54;101520.38;5051558;28;20101;-79
2022/08/21 05:46:41;;;;;;;46.08;8.40;;;;;;;16.80;93.63;101523.41;5050019;28;20022;-79
2022/08/21 05:49:07;;;;;;;33.15;7.63;;;;;;;17.20;92.44;101513.38;5049569;28;20101;-80
2022/08/21 05:51:32;;;;;;;30.98;7.30;;;;;;;17.58;89.53;101517.31;5051685;28;20037;-80
2022/08/21 05:53:58;;;;;;;39.78;7.78;;;;;;;17.97;85.92;101516.44;5046319;28;20026;-81
2022/08/21 05:56:23;;;;;;;37.70;8.25;;;;;;;18.21;84.03;101523.88;5026632;28;20089;-80
2022/08/21 05:58:49;;;;;;;33.13;7.80;;;;;;;18.65;82.43;101530.38;5045523;28;20368;-79
2022/08/21 06:01:15;;;;;;;31.83;7.22;;;;;;;19.11;79.75;101531.13;5036938;28;20033;-80
2022/08/21 06:03:42;;;;;;;37.67;7.68;;;;;;;19.31;78.55;101533.72;5033029;28;20021;-81
2022/08/21 06:06:09;;;;;;;36.77;7.77;;;;;;;19.87;76.91;101537.41;5038828;28;20037;-81
2022/08/21 06:08:34;;;;;;;26.48;7.15;;;;;;;20.25;74.26;101533.56;5044686;28;20303;-80
2022/08/21 06:11:00;;;;;;;28.35;6.85;;;;;;;20.74;72.23;101532.53;5047820;28;20077;-80
2022/08/21 06:13:26;;;;;;;39.53;8.25;;;;;;;20.57;72.13;101528.78;5032571;28;20056;-83
2022/08/21 06:16:02;;;;;;;32.60;6.85;;;;;;;20.82;71.08;101526.72;5027205;28;20061;-82
2022/08/21 06:18:27;;;;;;;46.33;7.65;;;;;;;21.14;70.44;101522.84;5043852;28;20029;-82
2022/08/21 06:20:53;;;;;;;41.60;7.93;;;;;;;21.35;68.64;101530.50;5033587;28;20496;-81
2022/08/21 06:23:18;;;;;;;36.42;7.80;;;;;;;20.80;69.96;101523.41;5039866;28;20479;-81
2022/08/21 06:25:43;;;;;;;37.13;8.05;;;;;;;20.56;71.37;101527.09;5037366;28;20428;-79
2022/08/21 06:28:09;;;;;;;33.47;7.95;;;;;;;21.17;69.40;101527.84;5036389;28;20350;-81
2022/08/21 06:30:36;;;;;;;39.33;8.50;;;;;;;20.69;70.24;101521.44;5025421;28;20017;-80
2022/08/21 06:33:02;;;;;;;46.80;9.10;;;;;;;20.42;71.60;101523.69;5028385;28;20045;-81
2022/08/21 06:35:28;;;;;;;29.45;7.68;;;;;;;21.31;70.75;101532.06;5025016;28;20042;-80
2022/08/21 06:37:54;;;;;;;40.05;7.60;;;;;;;21.54;69.16;101528.53;5014767;28;20413;-81
2022/08/21 06:40:19;;;;;;;37.40;7.53;;;;;;;21.88;67.84;101526.84;5031973;28;20026;-81
2022/08/21 06:42:45;;;;;;;34.50;7.85;;;;;;;21.37;67.98;101527.53;5040874;28;20026;-79
2022/08/21 06:45:10;;;;;;;46.13;8.57;;;;;;;21.66;68.05;101529.34;5036315;28;20456;-80
2022/08/21 06:47:35;;;;;;;38.53;8.10;;;;;;;21.12;70.00;101525.84;5023308;28;20036;-80
2022/08/21 06:50:01;;;;;;;34.00;8.15;;;;;;;21.22;70.66;101528.84;5036927;28;20021;-81
2022/08/21 06:52:26;;;;;;;48.28;7.93;;;;;;;21.40;68.79;101525.19;5024427;28;20044;-81
2022/08/21 06:54:52;;;;;;;38.60;7.47;;;;;;;21.72;68.65;101534.94;5038454;28;20029;-78
2022/08/21 06:57:17;;;;;;;43.63;8.48;;;;;;;21.51;68.29;101539.94;5027368;28;20122;-80
2022/08/21 06:59:42;;;;;;;28.98;7.43;;;;;;;21.11;70.16;101531.56;5017456;28;20169;-80
2022/08/21 07:02:08;;;;;;;31.65;6.75;;;;;;;21.04;71.38;101523.47;5034101;28;20299;-80
2022/08/21 07:04:33;;;;;;;32.67;7.88;;;;;;;20.49;73.15;101526.34;5039330;28;20028;-78
2022/08/21 07:06:58;;;;;;;33.53;7.55;;;;;;;20.33;74.51;101527.81;5043691;28;20391;-81
2022/08/21 07:09:24;;;;;;;33.40;7.78;;;;;;;20.54;75.91;101523.78;5024303;28;20030;-80
2022/08/21 07:11:51;;;;;;;29.15;7.20;;;;;;;21.02;73.28;101526.41;5037683;28;20028;-80
2022/08/21 07:14:16;;;;;;;44.70;7.60;;;;;;;20.83;72.16;101528.41;5021277;28;20018;-78
2022/08/21 07:16:41;;;;;;;38.13;7.45;;;;;;;20.23;74.95;101533.81;5024911;28;20025;-79
2022/08/21 07:19:07;;;;;;;42.90;7.88;;;;;;;19.83;77.27;101539.75;5041470;28;20004;-81
2022/08/21 07:21:32;;;;;;;39.30;8.15;;;;;;;19.40;79.24;101532.34;5042069;28;20037;-80
2022/08/21 07:23:57;;;;;;;35.78;8.63;;;;;;;18.96;81.37;101534.19;5030147;28;20029;-81
2022/08/21 07:26:23;;;;;;;40.95;8.93;;;;;;;19.01;82.31;101528.91;5035156;28;20026;-81
2022/08/21 07:28:49;;;;;;;34.53;8.25;;;;;;;19.38;82.36;101530.91;5030193;28;20086;-78
2022/08/21 07:31:16;;;;;;;38.97;8.57;;;;;;;20.08;78.50;101530.63;5036108;28;20049;-80
2022/08/21 07:33:42;;;;;;;34.15;7.55;;;;;;;20.14;77.34;101529.72;5031830;28;20050;-80
2022/08/21 07:36:08;;;;;;;52.35;8.52;;;;;;;20.17;76.82;101529.28;5012611;28;20021;-78
2022/08/21 07:38:34;;;;;;;36.25;8.00;;;;;;;20.03;78.11;101530.50;5014679;28;20034;-79
2022/08/21 07:41:01;;;;;;;53.35;8.13;;;;;;;20.14;78.14;101525.09;5007199;28;20033;-80
2022/08/21 07:43:28;;;;;;;53.95;8.10;;;;;;;19.94;79.01;101530.78;5003779;28;20393;-81
2022/08/21 07:45:54;;;;;;;30.70;6.05;;;;;;;20.00;79.69;101533.69;5021223;28;20111;-82
2022/08/21 07:48:21;;;;;;;44.70;6.95;;;;;;;20.10;79.34;101534.81;5026621;28;20089;-77
2022/08/21 07:50:46;;;;;;;40.78;6.45;;;;;;;20.32;77.52;101529.69;5018371;28;20112;-79
2022/08/21 07:53:12;;;;;;;39.13;6.30;;;;;;;20.42;76.42;101525.59;5005911;28;20033;-78
2022/08/21 07:55:38;;;;;;;32.08;5.68;;;;;;;20.53;76.81;101516.59;5028755;28;20141;-81
2022/08/21 07:58:03;;;;;;;42.92;5.90;;;;;;;20.46;76.71;101521.31;5027632;28;20034;-80
2022/08/21 08:00:30;;;;;;;37.88;6.78;;;;;;;20.58;76.46;101522.25;5026288;28;20557;-78
2022/08/21 08:02:56;;;;;;;37.05;6.32;;;;;;;20.52;76.63;101531.34;5022941;28;20033;-78
2022/08/21 08:05:27;;;;;;;33.38;5.32;;;;;;;20.88;76.03;101535.06;5023571;28;20137;-81
2022/08/21 08:07:52;;;;;;;28.60;5.15;;;;;;;20.98;74.51;101527.13;5027896;28;20098;-79
2022/08/21 08:10:18;;;;;;;44.13;6.47;;;;;;;21.05;74.67;101520.47;5025191;28;20069;-81
2022/08/21 08:12:44;;;;;;;37.75;5.22;;;;;;;21.15;75.84;101527.28;5020436;28;20497;-80
2022/08/21 08:15:14;;;;;;;32.92;5.65;;;;;;;20.85;77.23;101524.59;5021007;28;20057;-82
2022/08/21 08:17:39;;;;;;;34.75;5.85;;;;;;;20.62;77.96;101526.19;5027275;28;20070;-79
2022/08/21 08:20:07;;;;;;;33.80;6.07;;;;;;;20.30;78.80;101529.13;5008694;28;20022;-82
2022/08/21 08:22:34;;;;;;;39.40;5.90;;;;;;;20.24;80.37;101535.47;5014951;28;20014;-80
2022/08/21 08:25:00;;;;;;;41.42;6.15;;;;;;;20.27;81.83;101526.00;5012983;28;20090;-79
2022/08/21 08:27:25;;;;;;;41.55;6.85;;;;;;;20.27;81.19;101531.47;5027215;28;20037;-80
2022/08/21 08:29:51;;;;;;;36.40;5.90;;;;;;;20.29;81.82;101526.59;5029192;28;20034;-80
2022/08/21 08:32:16;;;;;;;37.13;5.93;;;;;;;20.31;81.50;101525.31;5023034;28;20010;-81
2022/08/21 08:34:43;;;;;;;23.90;5.35;;;;;;;20.27;79.66;101526.81;5047304;28;20060;-79
2022/08/21 08:37:09;;;;;;;23.77;4.47;;;;;;;20.19;77.51;101527.13;5052498;28;20057;-80
2022/08/21 08:39:34;;;;;;;21.05;3.83;;;;;;;20.21;75.41;101530.47;5052250;28;20029;-82
2022/08/21 08:42:07;;;;;;;23.48;4.07;;;;;;;20.21;74.98;101533.22;5051651;28;20017;-78
2022/08/21 08:44:33;;;;;;;18.27;4.07;;;;;;;20.31;73.45;101529.94;5053876;28;20034;-79
2022/08/21 08:46:59;;;;;;;27.17;4.47;;;;;;;20.66;72.11;101527.38;5038324;28;20025;-79
2022/08/21 08:49:36;;;;;;;21.35;3.65;;;;;;;21.69;69.50;101528.84;5038508;28;20036;-82
2022/08/21 08:52:07;;;;;;;20.80;3.35;;;;;;;23.08;63.20;101526.16;5053049;28;20040;-82
2022/08/21 08:54:55;;;;;;;18.45;2.80;;;;;;;24.53;57.06;101521.34;5034144;28;20030;-82
2022/08/21 08:57:23;;;;;;;21.17;3.50;;;;;;;25.06;54.87;101529.84;5040579;28;20021;-79
2022/08/21 08:59:52;;;;;;;23.85;3.40;;;;;;;24.93;52.98;101525.59;5037044;28;20124;-82
2022/08/21 09:02:18;;;;;;;17.70;2.80;;;;;;;25.05;54.17;101527.34;5039199;28;20075;-81
2022/08/21 09:04:45;;;;;;;25.40;3.13;;;;;;;25.86;51.69;101527.16;5056493;28;20044;-81
2022/08/21 09:07:38;;;;;;;24.23;3.40;;;;;;;26.59;49.07;101534.59;5037931;28;20085;-83
2022/08/21 09:10:25;;;;;;;20.30;3.90;;;;;;;27.13;45.50;101536.88;5030876;28;20025;-79
2022/08/21 09:13:16;;;;;;;27.40;3.67;;;;;;;27.35;44.85;101534.69;5054361;28;20021;-77
2022/08/21 09:15:57;;;;;;;15.25;2.85;;;;;;;27.64;44.68;101534.09;5057656;28;20041;-78
2022/08/21 09:18:56;;;;;;;22.83;2.95;;;;;;;27.28;44.86;101530.56;5057226;28;20056;-78
2022/08/21 09:21:33;;;;;;;24.13;3.47;;;;;;;27.40;45.56;101533.03;5053386;28;20022;-79
2022/08/21 09:24:10;;;;;;;28.08;3.75;;;;;;;27.52;45.13;101541.88;5055780;28;20068;-78
2022/08/21 09:26:51;;;;;;;17.05;3.00;;;;;;;27.81;44.46;101549.59;5036627;28;20029;-80
2022/08/21 09:29:20;;;;;;;23.10;3.85;;;;;;;27.67;43.35;101547.34;5053137;28;20108;-79
2022/08/21 09:31:45;;;;;;;22.67;3.35;;;;;;;26.76;45.86;101540.72;5056410;28;20081;-79
2022/08/21 09:34:13;;;;;;;22.38;3.63;;;;;;;25.57;48.23;101535.78;5048103;28;20050;-78
2022/08/21 09:36:42;;;;;;;20.33;3.28;;;;;;;25.53;48.77;101540.16;5041137;28;20077;-78
2022/08/21 09:39:09;;;;;;;22.48;3.30;;;;;;;25.96;47.73;101532.72;5038393;28;20037;-81
2022/08/21 09:41:35;;;;;;;27.08;3.33;;;;;;;26.00;46.70;101544.84;5055823;28;20013;-78
2022/08/21 09:44:02;;;;;;;27.02;4.00;;;;;;;25.91;47.33;101546.47;5055968;28;20066;-80
2022/08/21 09:46:28;;;;;;;18.20;3.47;;;;;;;25.39;48.09;101538.94;5037661;28;20035;-78
2022/08/21 09:48:56;;;;;;;20.42;3.67;;;;;;;25.30;50.32;101532.25;5058307;28;20025;-79
2022/08/21 09:51:26;;;;;;;18.63;3.13;;;;;;;25.73;49.13;101533.94;5048419;28;20057;-80
2022/08/21 09:54:05;;;;;;;20.33;3.28;;;;;;;25.78;46.73;101541.41;5051562;28;20068;-79
2022/08/21 09:59:30;;;;;;;16.73;3.50;;;;;;;24.58;49.76;101542.59;5052917;28;20067;-78
2022/08/21 10:01:55;;;;;;;24.55;3.85;;;;;;;23.63;52.35;101545.44;5048985;28;20033;-78
2022/08/21 10:04:39;;;;;;;23.77;4.10;;;;;;;23.08;59.94;101543.47;5054470;28;20037;-79
2022/08/21 10:07:13;;;;;;;27.58;4.32;;;;;;;22.35;64.43;101539.59;5031893;28;20056;-77
2022/08/21 10:09:40;;;;;;;32.67;4.63;;;;;;;22.04;66.76;101533.47;5048642;28;20013;-79
2022/08/21 10:12:25;;;;;;;22.07;3.87;;;;;;;22.97;66.77;101531.47;5050958;28;20030;-78
2022/08/21 10:14:56;;;;;;;35.35;4.78;;;;;;;23.14;62.82;101536.16;5034960;28;20324;-79
2022/08/21 10:17:28;;;;;;;20.98;3.65;;;;;;;23.78;62.18;101535.81;5055076;28;20069;-77
2022/08/21 10:20:12;;;;;;;19.20;3.78;;;;;;;24.15;61.18;101544.28;5058012;28;20025;-78
2022/08/21 10:22:51;;;;;;;21.67;3.85;;;;;;;25.15;60.19;101542.06;5053936;28;20029;-78
2022/08/21 10:25:27;;;;;;;22.08;3.95;;;;;;;25.62;54.75;101540.50;5031320;28;20010;-81
2022/08/21 10:28:01;;;;;;;25.60;4.00;;;;;;;26.36;52.90;101533.16;5053231;28;20026;-81
2022/08/21 10:30:48;;;;;;;27.08;3.95;;;;;;;26.52;51.00;101539.59;5036897;28;20021;-81
2022/08/21 10:33:22;;;;;;;13.48;3.35;;;;;;;26.68;49.71;101532.97;5031440;28;20041;-77
2022/08/21 10:35:56;;;;;;;21.27;3.70;;;;;;;26.78;48.47;101538.53;5029982;28;20503;-80
2022/08/21 10:38:46;;;;;;;25.92;3.70;;;;;;;25.88;50.59;101535.13;5029980;28;20031;-79
2022/08/21 10:41:28;;;;;;;23.70;3.38;;;;;;;25.46;52.92;101539.56;5051073;28;20116;-80
2022/08/21 10:44:08;;;;;;;28.73;3.60;;;;;;;26.42;50.60;101541.16;5025004;28;20088;-80
2022/08/21 10:46:46;;;;;;;24.52;4.00;;;;;;;26.19;51.02;101539.69;5028099;28;20040;-80
2022/08/21 10:49:40;;;;;;;22.20;3.70;;;;;;;26.84;49.20;101531.06;5030593;28;20037;-81
2022/08/21 10:52:36;;;;;;;21.30;4.00;;;;;;;26.93;48.18;101535.75;5050803;28;20098;-81
2022/08/21 10:55:22;;;;;;;31.05;5.30;;;;;;;26.29;49.37;101527.88;5051810;28;20038;-80
2022/08/21 10:57:48;;;;;;;;;;;;;;;25.61;49.60;101536.88;5028622;28;20017;-79
2022/08/21 11:00:22;;;;;;;17.77;3.35;;;;;;;25.74;49.58;101537.53;5041294;28;19909;-81
2022/08/21 11:02:58;;;;;;;18.95;3.28;;;;;;;25.71;49.51;101532.53;5025881;28;20053;-81
2022/08/21 11:05:48;;;;;;;18.02;3.40;;;;;;;25.17;48.86;101541.78;5022767;28;20030;-79
2022/08/21 11:08:38;;;;;;;22.77;3.20;;;;;;;24.66;51.01;101544.88;5028171;28;20072;-78
2022/08/21 11:11:21;;;;;;;28.70;3.75;;;;;;;24.63;51.64;101537.16;5017891;28;20043;-82
2022/08/21 11:13:51;;;;;;;17.48;3.17;;;;;;;24.63;52.36;101542.66;5034416;28;20085;-82
2022/08/21 11:16:26;;;;;;;26.65;3.78;;;;;;;24.47;52.62;101538.06;5032581;28;20028;-78
2022/08/21 11:19:09;;;;;;;19.70;3.45;;;;;;;24.78;52.47;101549.38;5052081;28;20106;-80
2022/08/21 11:21:39;;;;;;;19.02;3.40;;;;;;;24.74;50.94;101546.34;5028559;28;20164;-80
2022/08/21 11:24:19;;;;;;;22.67;3.28;;;;;;;24.75;51.34;101548.84;5034693;28;20014;-83
2022/08/21 11:26:58;;;;;;;22.88;3.17;;;;;;;24.69;50.93;101552.59;5031451;28;20009;-79